createdAt,value
2019-05-06T00:02:57.395Z,92.70
2019-05-06T00:07:59.164Z,92.80
2019-05-06T00:13:00.698Z,92.80
2019-05-06T00:18:04.244Z,92.80
2019-05-06T00:23:16.295Z,93.00
2019-05-06T00:28:25.172Z,93.00
2019-05-06T00:33:26.550Z,93.10
2019-05-06T00:38:29.386Z,93.20
2019-05-06T00:43:34.524Z,93.20
2019-05-06T00:48:35.872Z,93.30
2019-05-06T00:53:39.074Z,93.30
2019-05-06T00:58:40.434Z,93.50
2019-05-06T01:03:41.723Z,93.50
2019-05-06T01:08:44.023Z,93.60
2019-05-06T01:13:47.372Z,93.80
2019-05-06T01:18:48.642Z,93.90
2019-05-06T01:23:49.931Z,93.90
2019-05-06T01:28:51.208Z,93.90
2019-05-06T01:33:53.535Z,94.00
2019-05-06T01:39:00.008Z,94.00
2019-05-06T01:44:01.280Z,94.10
2019-05-06T01:49:05.640Z,94.20
2019-05-06T01:54:08.291Z,94.30
2019-05-06T01:59:09.607Z,94.30
2019-05-06T02:04:11.073Z,94.30
2019-05-06T02:09:14.941Z,94.30
2019-05-06T02:14:17.637Z,94.40
2019-05-06T02:19:19.010Z,94.40
2019-05-06T02:24:25.107Z,94.30
2019-05-06T02:29:28.690Z,94.30
2019-05-06T02:34:37.801Z,94.30
2019-05-06T02:39:43.572Z,94.50
2019-05-06T02:44:44.556Z,94.50
2019-05-06T02:49:53.269Z,94.70
2019-05-06T02:54:53.923Z,94.70
2019-05-06T02:59:55.898Z,94.70
2019-05-06T03:05:00.061Z,94.70
2019-05-06T03:10:14.470Z,94.70
2019-05-06T03:15:16.841Z,94.90
2019-05-06T03:20:56.766Z,95.00
2019-05-06T03:25:58.047Z,95.00
2019-05-06T03:31:07.557Z,95.00
2019-05-06T03:36:21.316Z,95.10
2019-05-06T03:41:13.936Z,95.10
2019-05-06T03:46:19.233Z,95.10
2019-05-06T03:51:23.353Z,95.10
2019-05-06T03:56:26.127Z,95.10
2019-05-06T04:01:28.100Z,95.20
2019-05-06T04:06:33.263Z,95.10
2019-05-06T04:11:37.014Z,95.10
2019-05-06T04:16:43.751Z,95.10
2019-05-06T04:21:47.489Z,95.00
2019-05-06T04:27:02.853Z,95.00
2019-05-06T04:32:09.011Z,95.00
2019-05-06T04:37:14.434Z,95.00
2019-05-06T04:42:15.657Z,95.10
2019-05-06T04:47:16.902Z,95.20
2019-05-06T04:52:22.800Z,95.30
2019-05-06T04:57:27.023Z,95.40
2019-05-06T05:02:28.312Z,95.30
2019-05-06T05:07:33.391Z,95.40
2019-05-06T05:12:39.881Z,95.40
2019-05-06T05:17:52.571Z,95.40
2019-05-06T05:22:56.594Z,95.40
2019-05-06T05:27:57.950Z,95.30
2019-05-06T05:33:02.599Z,95.30
2019-05-06T05:38:05.838Z,95.30
2019-05-06T05:43:09.387Z,95.20
2019-05-06T05:48:23.376Z,95.20
2019-05-06T05:53:26.769Z,95.10
2019-05-06T05:58:30.134Z,95.00
2019-05-06T06:03:32.527Z,94.90
2019-05-06T06:08:36.846Z,94.80
2019-05-06T06:13:39.399Z,94.70
2019-05-06T06:18:55.057Z,94.50
2019-05-06T06:24:13.780Z,94.30
2019-05-06T06:29:15.725Z,94.10
2019-05-06T06:34:19.419Z,93.90
2019-05-06T06:39:22.922Z,93.80
2019-05-06T06:44:33.117Z,93.70
2019-05-06T06:49:36.755Z,93.60
2019-05-06T06:54:45.033Z,93.50
2019-05-06T06:59:52.231Z,93.40
2019-05-06T07:05:02.801Z,93.40
2019-05-06T07:10:05.618Z,93.30
2019-05-06T07:15:07.094Z,93.20
2019-05-06T07:20:10.619Z,93.20
2019-05-06T07:25:12.820Z,93.20
2019-05-06T07:30:14.703Z,93.40
2019-05-06T07:35:16.103Z,93.50
2019-05-06T07:40:22.114Z,93.40
2019-05-06T07:45:28.488Z,93.60
2019-05-06T07:50:29.850Z,93.90
2019-05-06T07:55:32.741Z,94.20
2019-05-06T08:00:36.604Z,94.50
2019-05-06T08:05:51.571Z,95.20
2019-05-06T08:10:44.132Z,95.40
2019-05-06T08:15:45.626Z,95.40
2019-05-06T08:20:48.207Z,95.50
2019-05-06T08:25:54.367Z,95.70
2019-05-06T08:30:54.674Z,95.70
2019-05-06T08:36:08.946Z,95.70
2019-05-06T08:41:02.726Z,95.80
2019-05-06T08:46:04.271Z,95.80
2019-05-06T08:51:09.188Z,96.00
2019-05-06T08:56:16.489Z,95.90
2019-05-06T09:01:22.425Z,95.90
2019-05-06T09:06:30.162Z,96.00
2019-05-06T09:11:32.211Z,96.00
2019-05-06T09:16:36.352Z,95.90
2019-05-06T09:21:37.959Z,95.80
2019-05-06T09:26:43.270Z,95.80
2019-05-06T09:31:49.193Z,95.90
2019-05-06T09:37:09.042Z,95.90
2019-05-06T09:42:12.849Z,95.80
2019-05-06T09:47:23.010Z,95.60
2019-05-06T09:52:24.577Z,95.50
2019-05-06T09:57:29.882Z,95.40
2019-05-06T10:02:32.569Z,95.00
2019-05-06T10:07:35.176Z,94.80
2019-05-06T10:12:38.475Z,94.40
2019-05-06T10:17:42.743Z,94.10
2019-05-06T10:22:43.698Z,93.90
2019-05-06T10:27:47.320Z,93.90
2019-05-06T10:33:12.083Z,93.80
2019-05-06T10:38:38.598Z,93.60
2019-05-06T10:43:52.552Z,93.60
2019-05-06T10:48:56.124Z,93.70
2019-05-06T10:53:57.427Z,93.50
2019-05-06T10:59:02.465Z,93.30
2019-05-06T11:04:04.127Z,93.10
2019-05-06T11:09:08.596Z,93.20
2019-05-06T11:14:13.831Z,93.30
2019-05-06T11:19:15.153Z,93.60
2019-05-06T11:24:16.561Z,94.00
2019-05-06T11:29:19.759Z,94.20
2019-05-06T11:34:22.934Z,94.30
2019-05-06T11:39:24.394Z,94.50
2019-05-06T11:44:27.672Z,94.80
2019-05-06T11:49:29.050Z,94.50
2019-05-06T11:54:30.487Z,94.80
2019-05-06T11:59:32.453Z,94.50
2019-05-06T12:04:34.062Z,94.90
2019-05-06T12:09:37.069Z,95.30
2019-05-06T12:14:38.503Z,95.90
2019-05-06T12:19:39.862Z,96.40
2019-05-06T12:24:43.085Z,96.90
2019-05-06T12:29:44.580Z,97.10
2019-05-06T12:34:46.044Z,97.20
2019-05-06T12:39:49.261Z,97.40
2019-05-06T12:44:52.940Z,97.40
2019-05-06T12:49:54.451Z,97.10
2019-05-06T12:55:14.742Z,96.90
2019-05-06T12:59:59.816Z,97.10
2019-05-06T13:05:04.037Z,97.00
2019-05-06T13:10:06.509Z,96.50
2019-05-06T13:15:08.356Z,96.30
2019-05-06T13:20:14.463Z,96.00
2019-05-06T13:25:14.351Z,95.80
2019-05-06T13:30:17.736Z,95.90
2019-05-06T13:35:23.145Z,95.80
2019-05-06T13:40:27.128Z,95.90
2019-05-06T13:45:27.944Z,95.80
2019-05-06T13:50:32.277Z,95.80
2019-05-06T13:55:33.621Z,95.70
2019-05-06T14:00:37.258Z,95.50
2019-05-06T14:05:38.558Z,95.20
2019-05-06T14:10:42.138Z,94.60
2019-05-06T14:15:44.243Z,94.50
2019-05-06T14:20:47.821Z,94.00
2019-05-06T14:26:07.708Z,92.40
2019-05-06T14:31:14.020Z,91.40
2019-05-06T14:41:17.552Z,90.80
2019-05-06T14:46:19.058Z,89.60
2019-05-06T14:51:22.253Z,89.30
2019-05-06T14:56:39.442Z,86.50
2019-05-06T15:01:53.679Z,85.80
2019-05-06T15:06:56.201Z,85.00
2019-05-06T15:11:57.474Z,84.40
2019-05-06T15:17:02.203Z,84.20
2019-05-06T15:22:03.980Z,83.00
2019-05-06T15:27:07.695Z,82.60
2019-05-06T15:32:12.992Z,81.10
2019-05-06T15:37:47.069Z,79.80
2019-05-06T15:42:48.382Z,78.80
2019-05-06T15:47:52.298Z,77.40
2019-05-06T15:52:54.062Z,74.80
2019-05-06T15:57:56.012Z,73.20
2019-05-06T16:02:58.673Z,72.70
2019-05-06T16:08:00.076Z,70.80
2019-05-06T16:13:03.051Z,70.60
2019-05-06T16:18:04.847Z,70.50
2019-05-06T16:23:24.238Z,71.20
2019-05-06T16:28:25.610Z,71.40
2019-05-06T16:33:26.904Z,72.50
2019-05-06T16:38:28.186Z,73.00
2019-05-06T16:43:48.447Z,73.90
2019-05-06T16:48:52.309Z,74.30
2019-05-06T16:53:52.913Z,74.50
2019-05-06T16:59:03.027Z,74.60
2019-05-06T17:04:14.513Z,74.80
2019-05-06T17:09:20.934Z,74.30
2019-05-06T17:14:18.920Z,74.20
2019-05-06T17:19:20.307Z,74.20
2019-05-06T17:24:22.072Z,73.70
2019-05-06T17:29:46.702Z,74.30
2019-05-06T17:34:52.571Z,74.30
2019-05-06T17:40:07.086Z,74.60
2019-05-06T17:44:56.766Z,75.50
2019-05-06T17:49:58.048Z,75.80
2019-05-06T17:55:02.904Z,76.20
2019-05-06T18:00:05.982Z,76.80
2019-05-06T18:05:07.770Z,78.20
2019-05-06T18:10:09.454Z,79.20
2019-05-06T18:15:13.380Z,80.00
2019-05-06T18:20:35.360Z,80.60
2019-05-06T18:25:36.632Z,81.00
2019-05-06T18:30:39.561Z,81.40
2019-05-06T18:35:42.122Z,82.10
2019-05-06T18:40:46.649Z,82.60
2019-05-06T18:45:48.164Z,82.90
2019-05-06T18:50:52.018Z,83.20
2019-05-06T18:55:57.375Z,83.40
2019-05-06T19:01:03.777Z,83.60
2019-05-06T19:06:09.049Z,84.10
2019-05-06T19:11:14.346Z,84.40
2019-05-06T19:16:16.037Z,84.80
2019-05-06T19:21:17.327Z,85.00
2019-05-06T19:26:18.691Z,85.40
2019-05-06T19:31:22.798Z,85.90
2019-05-06T19:36:26.218Z,86.30
2019-05-06T19:41:27.845Z,86.60
2019-05-06T19:46:30.146Z,87.10
2019-05-06T19:51:33.036Z,88.10
2019-05-06T19:56:34.655Z,88.80
2019-05-06T20:01:36.076Z,89.20
2019-05-06T20:06:42.184Z,89.30
2019-05-06T20:11:44.730Z,89.70
2019-05-06T20:16:47.063Z,89.90
2019-05-06T20:21:52.636Z,90.40
2019-05-06T20:26:54.875Z,89.80
2019-05-06T20:31:56.233Z,89.80
2019-05-06T20:36:57.506Z,89.50
2019-05-06T20:42:02.743Z,89.50
2019-05-06T20:47:22.142Z,89.10
2019-05-06T20:52:23.581Z,89.00
2019-05-06T20:57:25.027Z,89.30
2019-05-06T21:02:26.337Z,89.40
2019-05-06T21:07:28.011Z,89.60
2019-05-06T21:12:31.226Z,90.30
2019-05-06T21:17:32.967Z,90.00
2019-05-06T21:22:34.678Z,90.20
2019-05-06T21:27:36.491Z,90.40
2019-05-06T21:32:39.799Z,90.60
2019-05-06T21:37:42.224Z,90.70
2019-05-06T21:42:45.742Z,90.80
2019-05-06T21:47:47.109Z,90.90
2019-05-06T21:52:48.456Z,91.00
2019-05-06T21:57:49.746Z,91.20
2019-05-06T22:02:52.990Z,91.20
2019-05-06T22:07:54.564Z,91.30
2019-05-06T22:12:56.196Z,91.40
2019-05-06T22:17:57.874Z,91.40
2019-05-06T22:22:59.380Z,91.60
2019-05-06T22:28:02.509Z,91.60
2019-05-06T22:33:03.810Z,91.70
2019-05-06T22:38:05.256Z,91.70
2019-05-06T22:43:06.872Z,91.80
2019-05-06T22:48:08.243Z,92.00
2019-05-06T22:53:09.505Z,92.10
2019-05-06T22:58:11.980Z,92.20
2019-05-06T23:03:15.420Z,92.40
2019-05-06T23:08:17.564Z,92.60
2019-05-06T23:13:18.846Z,92.90
2019-05-06T23:18:22.281Z,93.00
2019-05-06T23:23:24.030Z,93.20
2019-05-06T23:28:27.194Z,93.30
2019-05-06T23:33:28.549Z,93.50
2019-05-06T23:39:27.589Z,93.70
2019-05-06T23:45:25.356Z,93.80
2019-05-06T23:51:23.166Z,93.80
2019-05-06T23:56:43.980Z,93.90
